Time;durP1;ratioP1;P1;durP2;ratioP2;P2;SDS_P1;SDS_P2;PMS_P1;PMS_P2;Temp;Humidity;BMP_temperature;BMP_pressure;BME280_temperature;BME280_humidity;BME280_pressure;Samples;Min_cycle;Max_cycle;Signal;HPM_P1;HPM_P2
2023/01/23 00:02:20;;;;;;;14.32;10.43;;;;;;;5.10;59.44;99484.25;5034113;28;20025;-45
2023/01/23 00:04:46;;;;;;;13.88;10.80;;;;;;;5.07;58.22;99479.31;5016299;28;20018;-45
2023/01/23 00:07:11;;;;;;;15.13;10.32;;;;;;;4.98;58.68;99487.03;5033919;28;20029;-45
2023/01/23 00:09:37;;;;;;;21.45;10.65;;;;;;;4.96;59.17;99473.34;5034017;28;20017;-45
2023/01/23 00:12:04;;;;;;;16.58;10.90;;;;;;;5.07;58.77;99481.91;5033929;28;20124;-45
2023/01/23 00:14:30;;;;;;;12.27;10.43;;;;;;;5.17;59.22;99480.91;5016071;28;20022;-45
2023/01/23 00:16:55;;;;;;;16.80;11.40;;;;;;;5.19;58.23;99472.94;5033772;28;20056;-45
2023/01/23 00:19:21;;;;;;;18.50;11.30;;;;;;;5.13;58.45;99473.53;5016037;28;20267;-45
2023/01/23 00:21:47;;;;;;;16.55;10.57;;;;;;;5.18;58.13;99474.72;5033722;28;20332;-45
2023/01/23 00:24:13;;;;;;;20.05;11.15;;;;;;;5.19;58.69;99481.59;5015968;28;20402;-45
2023/01/23 00:26:39;;;;;;;15.20;10.75;;;;;;;5.19;58.90;99483.34;5033720;28;20502;-45
2023/01/23 00:29:05;;;;;;;14.73;10.95;;;;;;;5.22;58.70;99471.84;5015813;28;20024;-45
2023/01/23 00:31:34;;;;;;;18.48;11.93;;;;;;;5.22;58.02;99480.47;5015754;28;20029;-45
2023/01/23 00:34:02;;;;;;;16.13;11.07;;;;;;;5.19;58.40;99483.34;5033866;28;20037;-45
2023/01/23 00:36:34;;;;;;;14.32;10.60;;;;;;;5.16;58.46;99478.44;5015679;28;20064;-45
2023/01/23 00:39:01;;;;;;;15.93;11.05;;;;;;;5.11;58.09;99483.25;5033463;28;20037;-45
2023/01/23 00:41:27;;;;;;;19.80;11.63;;;;;;;4.95;58.34;99471.72;5033673;28;20064;-45
2023/01/23 00:43:53;;;;;;;17.48;11.60;;;;;;;4.87;58.65;99473.38;5015877;28;20041;-45
2023/01/23 00:46:20;;;;;;;14.60;10.10;;;;;;;4.82;58.28;99473.81;5015485;28;20038;-45
2023/01/23 00:48:45;;;;;;;15.23;12.13;;;;;;;4.77;59.06;99463.88;5033040;28;20053;-45
2023/01/23 00:51:11;;;;;;;21.73;11.35;;;;;;;4.83;59.33;99470.28;5033439;28;20028;-45
2023/01/23 00:53:37;;;;;;;16.67;11.63;;;;;;;4.85;59.24;99457.94;5033404;28;20470;-45
2023/01/23 00:56:03;;;;;;;18.17;11.43;;;;;;;4.86;59.11;99458.75;5015196;28;20486;-45
2023/01/23 00:58:28;;;;;;;16.92;12.38;;;;;;;4.91;59.36;99462.56;5014576;28;20121;-45
2023/01/23 01:00:54;;;;;;;16.98;11.63;;;;;;;4.93;59.03;99452.00;5032826;28;20014;-45
2023/01/23 01:03:20;;;;;;;14.82;10.82;;;;;;;4.97;58.75;99455.94;5015268;28;20051;-45
2023/01/23 01:05:46;;;;;;;14.40;10.65;;;;;;;4.96;59.31;99451.72;5032980;28;20025;-45
2023/01/23 01:08:11;;;;;;;15.48;11.00;;;;;;;5.03;58.46;99458.00;5032971;28;20100;-45
2023/01/23 01:10:41;;;;;;;15.27;11.35;;;;;;;4.99;58.76;99447.06;5032928;28;20398;-45
2023/01/23 01:13:08;;;;;;;16.50;11.07;;;;;;;4.94;58.71;99449.25;5032862;28;20061;-45
2023/01/23 01:15:34;;;;;;;13.52;10.40;;;;;;;4.90;59.12;99460.91;5032656;28;20503;-45
2023/01/23 01:17:59;;;;;;;17.58;10.93;;;;;;;4.88;58.72;99455.03;5032623;28;20025;-45
2023/01/23 01:20:27;;;;;;;18.33;11.23;;;;;;;4.98;59.00;99457.59;5014903;28;20045;-45
2023/01/23 01:22:55;;;;;;;14.35;11.15;;;;;;;5.04;58.79;99449.22;5032928;28;20022;-45
2023/01/23 01:25:21;;;;;;;15.45;11.52;;;;;;;4.97;58.89;99459.38;5032507;28;20017;-45
2023/01/23 01:27:47;;;;;;;14.13;10.13;;;;;;;5.07;59.33;99454.13;5014806;28;20542;-45
2023/01/23 01:30:14;;;;;;;12.65;10.70;;;;;;;5.18;58.71;99450.50;5014755;28;20026;-45
2023/01/23 01:32:41;;;;;;;14.90;11.60;;;;;;;5.18;58.10;99461.72;5032373;28;20033;-45
2023/01/23 01:35:08;;;;;;;15.27;11.32;;;;;;;5.01;58.31;99449.53;5032387;28;20490;-45
2023/01/23 01:37:37;;;;;;;13.43;10.98;;;;;;;5.05;59.19;99455.22;5014491;28;20062;-45
2023/01/23 01:40:05;;;;;;;16.42;10.38;;;;;;;5.08;59.07;99460.16;5032232;28;20080;-45
2023/01/23 01:42:38;;;;;;;14.15;11.52;;;;;;;5.10;58.54;99450.41;5014498;28;20040;-45
2023/01/23 01:45:04;;;;;;;14.90;11.13;;;;;;;5.10;58.83;99450.41;5014516;28;20116;-45
2023/01/23 01:47:29;;;;;;;17.42;11.43;;;;;;;5.19;58.42;99442.56;5014415;28;20033;-45
2023/01/23 01:50:01;;;;;;;16.38;10.95;;;;;;;5.20;57.92;99443.38;5031975;28;20065;-45
2023/01/23 01:52:27;;;;;;;26.10;12.27;;;;;;;5.16;59.01;99453.25;5014490;28;20037;-45
2023/01/23 01:54:58;;;;;;;14.35;11.32;;;;;;;5.10;58.38;99443.41;5032023;28;20494;-45
2023/01/23 01:57:28;;;;;;;15.48;11.13;;;;;;;5.01;59.28;99446.91;5014234;28;20116;-45
2023/01/23 02:00:16;;;;;;;14.35;10.68;;;;;;;4.98;59.18;99452.38;5032012;28;20021;-45
2023/01/23 02:03:02;;;;;;;16.33;12.20;;;;;;;4.98;59.51;99447.19;5032045;28;20402;-45
2023/01/23 02:05:44;;;;;;;17.05;11.10;;;;;;;4.94;59.68;99462.25;5031991;28;20026;-45
2023/01/23 02:08:25;;;;;;;16.08;10.73;;;;;;;4.99;59.13;99456.66;5031884;28;20071;-45
2023/01/23 02:10:51;;;;;;;13.63;11.27;;;;;;;4.92;59.22;99456.38;5013906;28;20136;-45
2023/01/23 02:13:27;;;;;;;15.77;11.13;;;;;;;4.86;59.37;99451.75;5031794;28;20112;-45
2023/01/23 02:15:53;;;;;;;16.05;11.25;;;;;;;4.89;59.52;99450.66;5032038;28;20109;-45
2023/01/23 02:18:20;;;;;;;25.67;12.13;;;;;;;4.96;59.64;99455.13;5013946;28;20136;-45
2023/01/23 02:20:47;;;;;;;17.13;11.65;;;;;;;5.08;60.12;99439.34;5014320;28;20029;-45
2023/01/23 02:23:44;;;;;;;16.88;12.10;;;;;;;5.11;59.04;99450.28;5031721;28;20033;-45
2023/01/23 02:26:17;;;;;;;13.40;11.18;;;;;;;4.95;58.40;99450.91;5014325;28;20025;-45
2023/01/23 02:28:45;;;;;;;12.65;10.23;;;;;;;4.92;59.97;99450.38;5031694;28;20013;-45
2023/01/23 02:31:12;;;;;;;15.38;11.25;;;;;;;4.96;60.21;99460.34;5014174;28;20533;-45
2023/01/23 02:33:38;;;;;;;14.85;10.60;;;;;;;4.93;59.90;99450.22;5013899;28;20021;-45
2023/01/23 02:36:04;;;;;;;13.52;11.25;;;;;;;4.81;59.43;99454.00;5013765;28;20040;-45
2023/01/23 02:38:38;;;;;;;18.33;10.80;;;;;;;4.76;59.83;99458.78;5031612;28;20014;-45
2023/01/23 02:41:08;;;;;;;20.95;11.45;;;;;;;4.83;60.04;99449.47;5014674;28;20053;-45
2023/01/23 02:43:36;;;;;;;139.93;120.63;;;;;;;4.88;59.73;99460.25;5013856;28;20026;-45
2023/01/23 02:46:09;;;;;;;43.20;26.63;;;;;;;4.85;60.10;99460.53;5013762;28;20029;-45
2023/01/23 02:48:36;;;;;;;24.77;12.95;;;;;;;4.85;59.53;99450.16;5013414;28;20053;-44
2023/01/23 02:51:03;;;;;;;28.38;17.42;;;;;;;4.83;59.57;99451.22;5031402;28;20044;-45
2023/01/23 02:53:29;;;;;;;18.08;12.50;;;;;;;4.79;60.17;99450.72;5031516;28;20084;-45
2023/01/23 02:55:55;;;;;;;27.27;20.35;;;;;;;4.65;60.25;99448.56;4997727;28;20079;-45
2023/01/23 03:01:05;;;;;;;15.20;11.43;;;;;;;4.81;60.50;99451.41;5031694;28;20108;-45
2023/01/23 03:03:31;;;;;;;18.10;11.73;;;;;;;4.76;60.29;99440.59;5031418;28;20467;-45
2023/01/23 03:05:58;;;;;;;15.10;10.95;;;;;;;4.77;60.25;99448.25;5013531;28;20087;-45
2023/01/23 03:08:32;;;;;;;16.20;10.30;;;;;;;4.77;59.51;99448.25;5031348;28;20494;-45
2023/01/23 03:10:58;;;;;;;15.10;10.80;;;;;;;4.80;60.22;99439.34;5031301;28;20033;-45
2023/01/23 03:13:24;;;;;;;14.07;9.73;;;;;;;4.76;59.72;99440.59;5013816;28;20105;-44
2023/01/23 03:15:53;;;;;;;12.60;10.23;;;;;;;4.68;59.22;99437.91;5013512;28;20160;-45
2023/01/23 03:18:20;;;;;;;13.93;10.48;;;;;;;4.67;59.91;99416.28;5031214;28;20426;-45
2023/01/23 03:20:45;;;;;;;19.25;10.88;;;;;;;4.62;60.27;99425.47;5031439;28;20111;-45
2023/01/23 03:23:11;;;;;;;17.30;10.77;;;;;;;4.60;60.11;99428.22;5033407;28;20442;-44
2023/01/23 03:25:42;;;;;;;16.40;10.75;;;;;;;4.63;60.50;99424.50;5017011;28;20457;-45
2023/01/23 03:30:11;;;;;;;14.23;10.55;;;;;;;4.65;59.82;99418.22;5017005;28;20483;-45
2023/01/23 03:30:53;;;;;;;14.10;10.00;;;;;;;4.73;60.25;99410.50;5034593;28;20052;-45
2023/01/23 03:33:19;;;;;;;12.80;10.10;;;;;;;4.71;59.99;99416.78;5034733;28;20495;-45
2023/01/23 03:35:44;;;;;;;11.80;10.05;;;;;;;4.74;60.48;99419.13;5034640;28;20040;-45
2023/01/23 03:38:10;;;;;;;15.82;13.13;;;;;;;4.71;60.04;99420.22;5016813;28;20029;-45
2023/01/23 03:43:20;;;;;;;37.75;25.80;;;;;;;4.83;59.50;99420.88;5034614;28;20029;-45
2023/01/23 03:45:46;;;;;;;24.08;17.52;;;;;;;4.86;59.72;99417.16;5016861;28;20057;-45
2023/01/23 03:48:11;;;;;;;123.18;57.50;;;;;;;4.82;59.40;99414.00;5016542;28;20054;-45
2023/01/23 03:50:37;;;;;;;356.52;65.60;;;;;;;4.84;60.25;99414.69;5034424;28;20036;-45
2023/01/23 03:53:03;;;;;;;63.05;18.20;;;;;;;4.84;59.50;99422.47;5016578;28;20025;-45
2023/01/23 03:55:28;;;;;;;19.42;11.18;;;;;;;4.84;60.02;99419.06;5016458;28;20048;-45
2023/01/23 03:57:54;;;;;;;21.52;12.75;;;;;;;4.89;59.52;99416.84;5034158;28;20040;-45
2023/01/23 04:00:20;;;;;;;18.13;11.63;;;;;;;4.89;59.24;99409.88;5034190;28;20334;-45
2023/01/23 04:02:45;;;;;;;35.80;13.10;;;;;;;4.88;59.04;99421.22;5034149;28;20025;-45
2023/01/23 04:05:11;;;;;;;23.88;12.32;;;;;;;4.78;59.13;99428.25;5016304;28;20401;-45
2023/01/23 04:07:37;;;;;;;28.08;21.00;;;;;;;4.78;59.94;99423.06;5016311;28;20508;-45
2023/01/23 04:10:03;;;;;;;20.58;13.00;;;;;;;4.87;59.37;99432.63;5016230;28;20041;-45
2023/01/23 04:12:28;;;;;;;19.73;11.45;;;;;;;4.80;59.34;99423.75;5034026;28;20018;-45
2023/01/23 04:14:54;;;;;;;12.00;9.80;;;;;;;4.84;59.50;99426.88;5033950;28;20022;-45
2023/01/23 04:17:20;;;;;;;13.10;10.15;;;;;;;4.90;59.62;99421.91;5033866;28;20056;-45
2023/01/23 04:19:45;;;;;;;15.70;9.35;;;;;;;5.00;59.02;99419.25;5016221;28;20486;-45
2023/01/23 04:22:11;;;;;;;11.90;9.63;;;;;;;4.98;59.05;99416.78;5015899;28;20037;-45
2023/01/23 04:24:37;;;;;;;13.18;9.95;;;;;;;4.90;58.96;99411.50;5016017;28;20036;-45
2023/01/23 04:27:02;;;;;;;16.35;10.02;;;;;;;4.78;58.47;99407.47;5015902;28;20430;-45
2023/01/23 04:29:28;;;;;;;18.35;10.40;;;;;;;4.68;58.97;99409.31;5033683;28;20025;-45
2023/01/23 04:31:54;;;;;;;16.65;11.20;;;;;;;4.60;59.19;99407.41;5033640;28;20499;-45
2023/01/23 04:34:19;;;;;;;15.25;10.68;;;;;;;4.63;59.57;99398.50;5033448;28;20025;-45
2023/01/23 04:36:45;;;;;;;14.32;10.23;;;;;;;4.68;59.11;99399.72;5015660;28;20032;-45
2023/01/23 04:39:11;;;;;;;13.65;9.82;;;;;;;4.71;59.99;99401.19;5033486;28;20031;-45
2023/01/23 04:41:36;;;;;;;15.13;10.05;;;;;;;4.74;59.90;99399.13;5033369;28;20017;-45
2023/01/23 04:44:23;;;;;;;14.30;10.50;;;;;;;4.75;59.19;99392.97;5033411;28;20088;-45
2023/01/23 04:46:51;;;;;;;12.82;9.10;;;;;;;4.83;58.92;99392.25;5032921;28;20056;-45
2023/01/23 04:49:18;;;;;;;16.17;10.30;;;;;;;4.79;58.89;99388.31;5033080;28;20057;-45
2023/01/23 04:51:46;;;;;;;13.27;10.40;;;;;;;4.79;58.95;99373.53;5015475;28;20022;-45
2023/01/23 04:54:12;;;;;;;12.60;10.10;;;;;;;4.76;59.29;99383.38;5015412;28;20055;-45
2023/01/23 04:56:39;;;;;;;15.57;9.75;;;;;;;4.89;59.05;99380.44;5033105;28;20071;-45
2023/01/23 04:59:05;;;;;;;14.85;9.20;;;;;;;4.93;58.68;99374.81;5033306;28;20021;-45
2023/01/23 05:01:31;;;;;;;13.35;9.25;;;;;;;4.87;59.29;99390.16;5033040;28;20104;-45
2023/01/23 05:03:57;;;;;;;9.80;8.75;;;;;;;4.88;58.00;99378.81;5032997;28;20022;-45
2023/01/23 05:06:23;;;;;;;14.02;10.18;;;;;;;4.82;59.05;99382.81;5032939;28;20490;-45
2023/01/23 05:08:49;;;;;;;17.30;10.02;;;;;;;4.71;59.04;99383.84;5015147;28;20026;-45
2023/01/23 05:11:14;;;;;;;13.73;9.95;;;;;;;4.62;58.81;99376.88;5032913;28;20494;-45
2023/01/23 05:13:40;;;;;;;11.60;10.35;;;;;;;4.57;58.83;99389.53;4998877;28;20033;-45
2023/01/23 05:16:06;;;;;;;13.80;9.93;;;;;;;4.53;59.79;99390.78;5014897;28;20056;-45
2023/01/23 05:18:32;;;;;;;19.02;9.93;;;;;;;4.54;59.29;99400.19;5014924;28;20510;-45
2023/01/23 05:20:58;;;;;;;16.33;10.02;;;;;;;4.63;59.52;99401.94;5032606;28;20022;-45
2023/01/23 05:23:23;;;;;;;15.85;10.02;;;;;;;4.79;59.99;99403.91;5032669;28;20021;-45
2023/01/23 05:25:49;;;;;;;13.13;9.75;;;;;;;4.88;58.94;99402.22;5032578;28;20108;-45
2023/01/23 05:28:14;;;;;;;16.50;9.88;;;;;;;4.82;58.74;99390.59;5032543;28;20083;-45
2023/01/23 05:30:40;;;;;;;13.20;8.98;;;;;;;4.90;58.52;99382.06;5014723;28;20044;-45
2023/01/23 05:33:06;;;;;;;15.95;9.57;;;;;;;4.85;58.55;99381.69;5032443;28;20067;-45
2023/01/23 05:35:31;;;;;;;14.68;9.02;;;;;;;4.81;58.53;99375.97;5032393;28;20028;-45
2023/01/23 05:37:57;;;;;;;16.20;9.38;;;;;;;4.85;58.63;99377.31;5014545;28;20021;-45
2023/01/23 05:40:23;;;;;;;13.68;9.60;;;;;;;4.89;58.54;99383.88;5032328;28;20533;-45
2023/01/23 05:42:49;;;;;;;18.15;9.88;;;;;;;4.94;58.66;99376.44;5014530;28;20105;-45
2023/01/23 05:45:16;;;;;;;13.13;9.18;;;;;;;4.98;58.50;99382.97;5014077;28;20487;-45
2023/01/23 05:47:42;;;;;;;17.20;10.13;;;;;;;4.85;58.28;99379.94;5032230;28;20030;-44
2023/01/23 05:50:13;;;;;;;13.63;9.98;;;;;;;4.71;58.13;99370.84;5031965;28;20049;-45
2023/01/23 05:52:40;;;;;;;20.83;10.65;;;;;;;4.64;59.31;99376.75;5014489;28;20065;-45
2023/01/23 05:55:06;;;;;;;20.83;10.45;;;;;;;4.71;59.19;99376.03;5014346;28;20128;-45
2023/01/23 05:57:33;;;;;;;19.10;10.80;;;;;;;4.91;58.95;99375.91;4998148;28;20100;-45
2023/01/23 05:59:58;;;;;;;24.25;10.82;;;;;;;4.95;58.70;99387.63;4998000;28;20107;-45
2023/01/23 06:02:24;;;;;;;54.25;13.13;;;;;;;4.93;58.79;99386.97;5032067;28;20034;-45
2023/01/23 06:04:50;;;;;;;18.15;10.05;;;;;;;4.94;58.50;99380.81;5014320;28;20116;-45
2023/01/23 06:07:17;;;;;;;14.23;8.93;;;;;;;4.91;57.85;99381.94;5014154;28;20025;-45
2023/01/23 06:09:43;;;;;;;16.65;9.63;;;;;;;4.79;58.03;99380.50;5031953;28;20037;-45
2023/01/23 06:12:09;;;;;;;13.68;9.88;;;;;;;4.78;59.00;99384.06;5031916;28;20096;-45
2023/01/23 06:14:35;;;;;;;14.45;10.05;;;;;;;4.82;58.89;99390.59;5031851;28;20029;-45
2023/01/23 06:17:01;;;;;;;16.73;9.40;;;;;;;4.92;59.16;99380.16;5031717;28;20112;-45
2023/01/23 06:19:27;;;;;;;19.52;11.45;;;;;;;5.05;58.88;99367.63;5014134;28;20546;-45
2023/01/23 06:21:53;;;;;;;12.95;9.70;;;;;;;5.15;58.59;99368.34;5031711;28;20033;-45
2023/01/23 06:24:18;;;;;;;16.67;9.88;;;;;;;5.09;58.35;99370.72;5014009;28;20044;-45
2023/01/23 06:26:44;;;;;;;13.05;10.05;;;;;;;5.07;58.29;99375.25;5014096;28;20108;-45
2023/01/23 06:29:10;;;;;;;21.40;11.05;;;;;;;5.05;58.35;99378.03;5031680;28;20026;-45
2023/01/23 06:31:36;;;;;;;15.45;9.82;;;;;;;5.06;57.84;99363.22;5013989;28;20147;-45
2023/01/23 06:34:01;;;;;;;23.00;10.80;;;;;;;5.06;58.50;99361.44;5013984;28;20407;-45
2023/01/23 06:36:27;;;;;;;16.88;10.43;;;;;;;5.10;58.29;99356.75;5031572;28;20394;-45
2023/01/23 06:38:53;;;;;;;16.33;10.43;;;;;;;5.03;57.49;99355.69;5013905;28;20067;-45
2023/01/23 06:41:19;;;;;;;17.65;10.40;;;;;;;4.85;57.63;99361.72;5031667;28;20029;-45
2023/01/23 06:43:45;;;;;;;19.02;9.45;;;;;;;4.74;58.95;99364.50;5013834;28;20025;-45
2023/01/23 06:46:11;;;;;;;18.95;10.20;;;;;;;4.76;58.56;99365.19;5031585;28;20064;-45
2023/01/23 06:48:37;;;;;;;20.55;9.68;;;;;;;4.80;58.71;99363.94;5031366;28;20529;-45
2023/01/23 06:51:04;;;;;;;14.68;9.75;;;;;;;4.82;58.65;99363.78;5013765;28;20399;-45
2023/01/23 06:53:31;;;;;;;22.88;10.57;;;;;;;4.84;58.28;99370.47;5031460;28;20030;-45
2023/01/23 06:56:01;;;;;;;18.05;10.15;;;;;;;4.82;58.24;99367.19;4997528;28;20466;-45
2023/01/23 06:58:27;;;;;;;27.35;9.70;;;;;;;4.82;58.38;99374.19;5016537;28;20029;-45
2023/01/23 07:00:54;;;;;;;22.98;11.98;;;;;;;4.84;58.76;99369.66;5035323;28;20028;-45
2023/01/23 07:03:20;;;;;;;16.08;9.73;;;;;;;4.80;58.69;99377.75;5035291;28;20439;-45
2023/01/23 07:05:45;;;;;;;13.20;8.77;;;;;;;4.89;58.63;99380.44;5035206;28;20105;-45
2023/01/23 07:08:11;;;;;;;15.15;10.20;;;;;;;4.93;58.53;99382.59;5017457;28;20037;-45
2023/01/23 07:10:37;;;;;;;18.60;9.35;;;;;;;4.98;58.11;99390.78;5017349;28;20018;-45
2023/01/23 07:13:07;;;;;;;20.50;9.45;;;;;;;4.95;58.23;99382.44;5035138;28;20021;-45
2023/01/23 07:15:33;;;;;;;21.95;11.18;;;;;;;4.97;57.99;99389.16;5017495;28;20026;-45
2023/01/23 07:18:00;;;;;;;18.30;10.52;;;;;;;4.91;57.95;99397.53;5034945;28;20029;-45
2023/01/23 07:20:27;;;;;;;14.52;9.95;;;;;;;4.85;58.00;99397.28;5034962;28;20021;-45
2023/01/23 07:22:56;;;;;;;15.27;9.75;;;;;;;4.85;58.21;99402.50;5034900;28;20047;-45
2023/01/23 07:25:24;;;;;;;11.82;8.20;;;;;;;4.87;57.94;99395.38;5034844;28;20072;-45
2023/01/23 07:27:50;;;;;;;20.45;9.68;;;;;;;4.89;58.48;99389.06;5034883;28;20112;-45
2023/01/23 07:30:17;;;;;;;27.27;11.32;;;;;;;4.97;58.13;99391.75;5034793;28;20391;-45
2023/01/23 07:32:43;;;;;;;16.80;8.68;;;;;;;4.97;56.98;99396.13;5016908;28;20403;-44
2023/01/23 07:35:09;;;;;;;15.88;9.65;;;;;;;4.90;57.67;99397.69;5034686;28;20018;-45
2023/01/23 07:37:34;;;;;;;13.90;9.00;;;;;;;4.90;58.39;99403.69;5034535;28;20030;-45
2023/01/23 07:40:00;;;;;;;18.55;10.02;;;;;;;4.94;57.86;99397.25;5034800;28;20029;-45
2023/01/23 07:42:26;;;;;;;22.95;10.75;;;;;;;4.96;57.78;99402.31;5016788;28;20034;-45
2023/01/23 07:44:52;;;;;;;12.65;9.90;;;;;;;4.91;57.30;99397.53;5016738;28;20025;-45
2023/01/23 07:47:17;;;;;;;15.10;9.27;;;;;;;4.82;57.86;99398.41;5034665;28;20038;-45
2023/01/23 07:49:43;;;;;;;15.55;9.55;;;;;;;4.69;57.53;99400.53;5016628;28;20124;-45
2023/01/23 07:52:09;;;;;;;17.70;8.65;;;;;;;4.66;58.19;99408.63;5016595;28;20093;-45
2023/01/23 07:54:34;;;;;;;17.88;10.05;;;;;;;4.61;58.42;99409.06;5016522;28;20056;-45
2023/01/23 07:57:00;;;;;;;28.63;10.98;;;;;;;4.64;59.05;99405.34;5034263;28;20403;-45
2023/01/23 07:59:26;;;;;;;14.25;9.32;;;;;;;4.78;59.21;99405.69;5016628;28;20037;-45
2023/01/23 08:01:52;;;;;;;14.52;8.80;;;;;;;4.90;57.78;99390.69;5034171;28;20025;-45
2023/01/23 08:04:18;;;;;;;19.75;9.38;;;;;;;4.81;58.13;99407.19;5016473;28;20117;-45
2023/01/23 08:06:44;;;;;;;20.65;9.40;;;;;;;4.79;58.48;99399.53;5034047;28;20028;-45
2023/01/23 08:09:11;;;;;;;21.15;9.90;;;;;;;4.78;58.08;99389.25;5033618;28;20025;-45
2023/01/23 08:11:37;;;;;;;23.05;9.75;;;;;;;4.82;58.53;99398.41;5016233;28;20049;-45
2023/01/23 08:14:03;;;;;;;14.23;10.30;;;;;;;4.90;58.50;99401.09;5016178;28;20116;-45
2023/01/23 08:16:28;;;;;;;23.05;10.15;;;;;;;4.89;58.46;99393.44;5033891;28;20029;-45
2023/01/23 08:18:54;;;;;;;19.83;9.57;;;;;;;4.95;57.56;99391.09;5016223;28;20109;-45
2023/01/23 08:21:20;;;;;;;13.25;9.40;;;;;;;4.94;58.15;99393.81;5016035;28;20036;-45
2023/01/23 08:23:46;;;;;;;36.03;10.50;;;;;;;4.95;57.97;99388.47;5016015;28;20032;-45
2023/01/23 08:26:14;;;;;;;27.27;10.60;;;;;;;5.02;57.66;99401.72;5015969;28;20033;-45
2023/01/23 08:28:42;;;;;;;21.67;9.65;;;;;;;5.06;56.63;99399.66;5033724;28;20104;-45
2023/01/23 08:31:10;;;;;;;19.95;9.23;;;;;;;5.10;57.45;99403.59;5033659;28;20507;-45
2023/01/23 08:33:38;;;;;;;21.92;10.38;;;;;;;5.08;57.76;99410.72;5015888;28;20037;-45
2023/01/23 08:36:05;;;;;;;10.77;9.55;;;;;;;5.10;56.99;99403.59;5033540;28;20049;-45
2023/01/23 08:38:31;;;;;;;17.85;10.25;;;;;;;5.07;57.43;99412.50;5033515;28;20071;-45
2023/01/23 08:40:59;;;;;;;19.67;11.55;;;;;;;5.16;57.41;99411.59;5033492;28;20029;-45
2023/01/23 08:43:25;;;;;;;23.08;10.48;;;;;;;5.29;57.32;99405.22;5015642;28;20064;-45
2023/01/23 08:45:53;;;;;;;18.30;10.40;;;;;;;5.41;56.30;99404.03;5015773;28;20021;-45
2023/01/23 08:48:20;;;;;;;19.05;10.77;;;;;;;5.45;56.58;99399.34;5012059;28;20573;-45
2023/01/23 08:50:45;;;;;;;18.73;9.93;;;;;;;5.37;56.91;99405.28;5013490;28;20041;-45
2023/01/23 08:53:12;;;;;;;16.27;9.23;;;;;;;5.40;56.88;99399.81;5012440;28;20029;-45
2023/01/23 08:55:38;;;;;;;26.88;9.95;;;;;;;5.53;56.47;99389.84;5013431;28;20064;-45
2023/01/23 08:58:05;;;;;;;18.92;10.27;;;;;;;5.64;56.58;99395.78;5013372;28;20026;-45
2023/01/23 09:00:31;;;;;;;22.15;10.10;;;;;;;5.69;55.91;99402.16;5012042;28;20110;-45
2023/01/23 09:03:02;;;;;;;23.95;10.20;;;;;;;5.76;56.39;99400.59;5012000;28;20515;-45
2023/01/23 09:05:28;;;;;;;22.90;11.27;;;;;;;5.87;56.30;99399.50;5011921;28;20033;-45
2023/01/23 09:07:55;;;;;;;20.27;10.52;;;;;;;5.87;55.71;99406.50;5012027;28;20495;-45
2023/01/23 09:10:21;;;;;;;25.05;10.20;;;;;;;5.94;55.81;99407.56;5012009;28;20023;-45
2023/01/23 09:12:49;;;;;;;15.70;10.70;;;;;;;5.94;55.98;99410.16;5013121;28;20029;-45
2023/01/23 09:15:16;;;;;;;13.45;9.73;;;;;;;5.92;55.41;99407.69;5013075;28;20442;-45
2023/01/23 09:17:41;;;;;;;14.68;9.85;;;;;;;5.94;55.72;99407.56;5012965;28;20076;-45
2023/01/23 09:20:10;;;;;;;12.85;9.80;;;;;;;5.95;55.10;99398.78;5011034;28;20026;-45
2023/01/23 09:22:35;;;;;;;23.80;10.65;;;;;;;5.96;56.01;99403.03;5013145;28;20072;-45
2023/01/23 09:25:01;;;;;;;15.15;9.45;;;;;;;5.98;54.62;99393.28;5011692;28;20049;-45
2023/01/23 09:27:27;;;;;;;22.20;9.45;;;;;;;5.91;55.35;99393.03;5012937;28;20509;-45
2023/01/23 09:29:53;;;;;;;16.42;10.75;;;;;;;5.89;55.11;99401.97;5011527;28;20030;-45
2023/01/23 09:32:18;;;;;;;13.07;9.18;;;;;;;5.79;55.40;99397.69;4995194;28;20022;-45
2023/01/23 09:34:47;;;;;;;24.77;10.27;;;;;;;5.73;55.48;99395.66;5011460;28;20029;-45
2023/01/23 09:37:14;;;;;;;17.48;10.77;;;;;;;5.85;56.62;99388.44;5012598;28;20025;-45
2023/01/23 09:39:42;;;;;;;27.55;10.10;;;;;;;5.96;56.29;99384.81;5012913;28;20049;-45
2023/01/23 09:42:32;;;;;;;13.73;9.00;;;;;;;6.08;55.42;99390.59;5011356;28;20399;-45
2023/01/23 09:45:05;;;;;;;16.75;9.65;;;;;;;6.16;55.04;99378.41;5012928;28;20037;-45
2023/01/23 09:47:37;;;;;;;22.30;11.05;;;;;;;6.25;55.20;99371.44;5011312;28;20037;-45
2023/01/23 09:50:29;;;;;;;35.70;11.90;;;;;;;6.38;55.32;99361.41;5011025;28;20503;-45
2023/01/23 09:53:04;;;;;;;18.27;9.95;;;;;;;6.55;54.88;99369.28;5001708;28;20045;-45
2023/01/23 09:55:42;;;;;;;32.78;10.55;;;;;;;6.62;54.16;99361.66;5011200;28;20578;-45
2023/01/23 09:58:25;;;;;;;18.98;10.25;;;;;;;6.60;53.78;99365.25;5012341;28;20040;-45
2023/01/23 10:00:52;;;;;;;35.45;11.25;;;;;;;6.62;53.46;99362.47;5012332;28;20049;-45
2023/01/23 10:03:18;;;;;;;21.63;10.02;;;;;;;6.58;53.69;99356.75;5012389;28;20079;-45
2023/01/23 10:06:06;;;;;;;27.35;10.98;;;;;;;6.61;53.51;99350.41;5012283;28;20445;-45
2023/01/23 10:09:12;;;;;;;29.17;10.45;;;;;;;6.58;54.33;99353.34;5012312;28;20037;-45
2023/01/23 10:12:09;;;;;;;33.03;11.43;;;;;;;6.65;54.47;99361.34;5006114;28;20030;-45
2023/01/23 10:14:38;;;;;;;23.27;10.38;;;;;;;6.43;53.24;99365.34;5010918;28;20492;-45
2023/01/23 10:17:12;;;;;;;28.65;10.60;;;;;;;6.16;54.39;99356.75;5012082;28;20495;-45
2023/01/23 10:19:47;;;;;;;28.15;10.15;;;;;;;6.22;54.39;99350.06;5010792;28;20034;-45
2023/01/23 10:22:38;;;;;;;21.20;10.27;;;;;;;6.29;54.68;99356.31;5012093;28;20025;-45
2023/01/23 10:25:24;;;;;;;26.65;10.68;;;;;;;6.33;54.55;99360.22;5012118;28;20110;-45
2023/01/23 10:27:54;;;;;;;38.28;11.10;;;;;;;6.40;54.03;99348.22;5012138;28;20553;-45
2023/01/23 10:30:25;;;;;;;39.20;12.80;;;;;;;6.50;54.77;99348.91;5010824;28;20458;-45
2023/01/23 10:32:51;;;;;;;21.17;8.95;;;;;;;6.54;53.75;99350.22;5015779;28;20025;-45
2023/01/23 10:35:39;;;;;;;27.58;10.18;;;;;;;6.53;53.79;99348.56;5016019;28;20091;-45
2023/01/23 10:38:05;;;;;;;33.70;11.32;;;;;;;6.52;53.65;99346.97;5015637;28;20069;-45
2023/01/23 10:43:17;;;;;;;20.88;8.35;;;;;;;6.68;53.08;99335.75;5016546;28;20052;-45
2023/01/23 10:45:45;;;;;;;31.95;10.90;;;;;;;6.73;52.91;99338.69;5016120;28;20061;-45
2023/01/23 10:48:32;;;;;;;29.05;10.38;;;;;;;6.76;53.06;99332.34;5017612;28;20049;-45
2023/01/23 10:50:59;;;;;;;13.60;9.05;;;;;;;6.70;52.67;99341.63;5017815;28;20025;-45
2023/01/23 10:53:26;;;;;;;19.52;9.00;;;;;;;6.60;52.70;99336.56;5035543;28;20064;-45
2023/01/23 10:55:58;;;;;;;26.33;10.35;;;;;;;6.60;53.20;99341.78;5017946;28;20025;-45
2023/01/23 10:58:36;;;;;;;22.55;10.85;;;;;;;6.77;53.73;99331.38;5018032;28;20060;-45
2023/01/23 11:01:03;;;;;;;33.28;13.27;;;;;;;6.93;53.93;99334.00;5035451;28;20528;-45
2023/01/23 11:03:33;;;;;;;30.77;11.18;;;;;;;7.06;54.41;99327.50;5035394;28;20025;-45
2023/01/23 11:06:09;;;;;;;29.92;12.30;;;;;;;7.11;53.30;99330.47;5035487;28;20017;-45
2023/01/23 11:08:48;;;;;;;88.38;58.65;;;;;;;7.02;53.93;99331.41;5017507;28;20029;-45
2023/01/23 11:11:13;;;;;;;83.22;69.13;;;;;;;7.05;54.17;99333.72;5035188;28;20518;-45
2023/01/23 11:13:39;;;;;;;29.65;15.15;;;;;;;7.12;53.24;99335.53;5035155;28;20029;-45
2023/01/23 11:16:05;;;;;;;17.95;9.63;;;;;;;7.17;53.00;99329.81;5035062;28;20022;-45
2023/01/23 11:18:34;;;;;;;18.85;9.70;;;;;;;7.12;51.35;99319.03;5017337;28;20120;-45
2023/01/23 11:21:01;;;;;;;16.35;9.77;;;;;;;6.90;51.95;99321.31;5017195;28;20084;-45
2023/01/23 11:23:28;;;;;;;17.42;9.55;;;;;;;6.88;52.77;99320.66;5017213;28;20041;-45
2023/01/23 11:25:54;;;;;;;24.30;9.70;;;;;;;6.99;52.97;99311.69;5034909;28;20021;-45
2023/01/23 11:28:32;;;;;;;20.05;8.52;;;;;;;7.06;52.56;99301.41;5017106;28;20044;-45
2023/01/23 11:31:13;;;;;;;19.02;9.40;;;;;;;7.09;51.76;99311.53;5017076;28;20034;-45
2023/01/23 11:33:50;;;;;;;11.93;8.20;;;;;;;7.19;51.41;99305.16;5034818;28;20105;-45
2023/01/23 11:36:16;;;;;;;15.90;8.23;;;;;;;7.26;50.71;99294.88;5034699;28;20075;-45
2023/01/23 11:39:15;;;;;;;20.50;8.85;;;;;;;7.26;50.49;99294.06;5016836;28;20041;-45
2023/01/23 11:41:44;;;;;;;18.45;9.23;;;;;;;7.25;50.71;99289.84;5034630;28;20037;-45